Time;durP1;ratioP1;P1;durP2;ratioP2;P2;SDS_P1;SDS_P2;PMS_P1;PMS_P2;Temp;Humidity;BMP_temperature;BMP_pressure;BME280_temperature;BME280_humidity;BME280_pressure;Samples;Min_cycle;Max_cycle;Signal;HPM_P1;HPM_P2
2021/12/14 00:01:54;;;;;;;19.23;11.55;;;8.50;99.90;;;;;;5149662;27;20078;-72
2021/12/14 00:04:25;;;;;;;15.88;10.32;;;8.50;99.90;;;;;;5157930;27;20049;-72
2021/12/14 00:06:55;;;;;;;15.45;10.50;;;8.50;99.90;;;;;;5175886;27;20550;-72
2021/12/14 00:09:27;;;;;;;13.98;10.52;;;8.50;99.90;;;;;;5138065;27;20074;-73
2021/12/14 00:12:12;;;;;;;17.88;10.65;;;8.50;99.90;;;;;;5133442;27;20142;-72
2021/12/14 00:17:28;;;;;;;14.30;11.00;;;8.50;99.90;;;;;;5116586;27;20047;-72
2021/12/14 00:19:59;;;;;;;17.75;11.30;;;8.50;99.90;;;;;;5115688;27;20047;-72
2021/12/14 00:22:36;;;;;;;16.85;10.18;;;8.50;99.90;;;;;;5116348;27;20075;-72
2021/12/14 00:25:05;;;;;;;15.77;11.15;;;8.50;99.90;;;;;;5116353;27;20058;-73
2021/12/14 00:27:33;;;;;;;18.27;10.60;;;8.40;99.90;;;;;;5115302;27;20487;-73
2021/12/14 00:30:02;;;;;;;16.75;10.88;;;8.40;99.90;;;;;;5116432;27;20484;-72
2021/12/14 00:32:35;;;;;;;18.48;10.80;;;8.50;99.90;;;;;;5133738;27;20047;-72
2021/12/14 00:35:03;;;;;;;17.83;10.75;;;8.40;99.90;;;;;;5136399;27;20107;-73
2021/12/14 00:37:36;;;;;;;16.25;11.23;;;8.50;99.90;;;;;;5137044;27;20047;-72
2021/12/14 00:40:08;;;;;;;16.23;10.55;;;8.50;99.90;;;;;;5136530;27;20046;-72
2021/12/14 00:42:35;;;;;;;18.58;10.70;;;8.50;99.90;;;;;;5136262;27;20057;-72
2021/12/14 00:45:02;;;;;;;17.02;10.68;;;8.40;99.90;;;;;;5136292;27;20086;-73
2021/12/14 00:47:29;;;;;;;15.85;11.05;;;8.40;99.90;;;;;;5136607;27;20150;-72
2021/12/14 00:49:56;;;;;;;15.38;10.60;;;8.40;99.90;;;;;;5135580;27;20139;-73
2021/12/14 00:52:23;;;;;;;16.50;10.93;;;8.40;99.90;;;;;;5136742;27;20510;-72
2021/12/14 00:54:51;;;;;;;17.42;10.77;;;8.40;99.90;;;;;;5156498;27;20493;-72
2021/12/14 00:57:19;;;;;;;16.13;11.15;;;8.40;99.90;;;;;;5156696;27;20417;-73
2021/12/14 00:59:46;;;;;;;18.38;10.73;;;8.40;99.90;;;;;;5156836;27;20134;-73
2021/12/14 01:02:16;;;;;;;19.08;11.70;;;8.40;99.90;;;;;;5154599;27;20053;-73
2021/12/14 01:04:46;;;;;;;14.50;10.30;;;8.50;99.90;;;;;;5174991;27;20397;-73
2021/12/14 01:07:16;;;;;;;17.17;11.32;;;8.50;99.90;;;;;;5156836;27;20052;-72
2021/12/14 01:09:46;;;;;;;18.25;11.20;;;8.40;99.90;;;;;;5155939;27;20089;-72
2021/12/14 01:12:26;;;;;;;14.93;10.70;;;8.40;99.90;;;;;;5156750;27;20042;-72
2021/12/14 01:15:11;;;;;;;16.10;10.45;;;8.50;99.90;;;;;;5156372;27;20072;-72
2021/12/14 01:17:42;;;;;;;16.13;10.50;;;8.40;99.90;;;;;;5156106;27;20058;-73
2021/12/14 01:20:13;;;;;;;15.95;10.32;;;8.40;99.90;;;;;;5156577;27;20061;-72
2021/12/14 01:22:43;;;;;;;17.00;11.55;;;8.40;99.90;;;;;;5156513;27;20059;-72
2021/12/14 01:25:16;;;;;;;18.08;10.90;;;8.40;99.90;;;;;;5156851;27;20052;-72
2021/12/14 01:27:50;;;;;;;15.77;10.93;;;8.40;99.90;;;;;;5156587;27;20142;-72
2021/12/14 01:30:26;;;;;;;15.82;11.02;;;8.40;99.90;;;;;;5156306;27;20077;-73
2021/12/14 01:32:55;;;;;;;13.05;10.00;;;8.40;99.90;;;;;;5156721;27;20095;-72
2021/12/14 01:35:28;;;;;;;17.00;10.13;;;8.40;99.90;;;;;;5155963;27;20145;-72
2021/12/14 01:38:04;;;;;;;21.13;11.60;;;8.40;99.90;;;;;;5155879;27;20054;-72
2021/12/14 01:40:53;;;;;;;16.90;11.13;;;8.40;99.90;;;;;;5156048;27;20050;-73
2021/12/14 01:43:27;;;;;;;14.95;10.57;;;8.40;99.90;;;;;;5156378;27;20058;-73
2021/12/14 01:45:55;;;;;;;19.05;11.10;;;8.40;99.90;;;;;;5155728;27;20068;-73
2021/12/14 01:48:22;;;;;;;19.45;11.57;;;8.40;99.90;;;;;;5156200;27;20065;-72
2021/12/14 01:50:52;;;;;;;18.95;11.13;;;8.40;99.90;;;;;;5156000;27;20049;-72
2021/12/14 01:53:22;;;;;;;18.17;11.57;;;8.40;99.90;;;;;;5155566;27;20137;-73
2021/12/14 01:55:53;;;;;;;19.70;12.18;;;8.40;99.90;;;;;;5155830;27;20055;-73
2021/12/14 01:58:25;;;;;;;18.38;11.73;;;8.40;99.90;;;;;;5155388;27;20046;-73
2021/12/14 02:00:57;;;;;;;16.35;11.63;;;8.40;99.90;;;;;;5155735;27;20129;-73
2021/12/14 02:03:30;;;;;;;21.05;11.52;;;8.40;99.90;;;;;;5156130;27;20058;-73
2021/12/14 02:05:57;;;;;;;17.42;12.35;;;8.40;99.90;;;;;;5155505;27;20046;-72
2021/12/14 02:08:27;;;;;;;16.92;11.15;;;8.40;99.90;;;;;;5156205;27;20096;-73
2021/12/14 02:10:56;;;;;;;17.33;12.35;;;8.40;99.90;;;;;;5156267;27;20050;-72
2021/12/14 02:13:26;;;;;;;20.58;12.13;;;8.40;99.90;;;;;;5156728;27;20054;-73
2021/12/14 02:15:53;;;;;;;21.07;13.10;;;8.30;99.90;;;;;;5160054;27;20057;-73
2021/12/14 02:18:23;;;;;;;17.67;12.40;;;8.30;99.90;;;;;;5160098;27;20374;-74
2021/12/14 02:20:55;;;;;;;19.77;13.00;;;8.40;99.90;;;;;;5159269;27;20410;-74
2021/12/14 02:23:22;;;;;;;18.25;13.23;;;8.30;99.90;;;;;;5159898;27;20396;-73
2021/12/14 02:25:49;;;;;;;22.55;13.27;;;8.30;99.90;;;;;;5159964;27;20141;-73
2021/12/14 02:28:18;;;;;;;20.83;12.93;;;8.30;99.90;;;;;;5159078;27;20052;-73
2021/12/14 02:30:47;;;;;;;21.08;14.35;;;8.30;99.90;;;;;;5160028;27;20398;-73
2021/12/14 02:33:18;;;;;;;20.15;13.43;;;8.30;99.90;;;;;;5159499;27;20081;-73
2021/12/14 02:35:47;;;;;;;20.58;13.85;;;8.30;99.90;;;;;;5159747;27;20560;-73
2021/12/14 02:38:17;;;;;;;25.80;14.98;;;8.30;99.90;;;;;;5159448;27;20137;-73
2021/12/14 02:40:55;;;;;;;21.90;14.20;;;8.30;99.90;;;;;;5158869;27;20073;-73
2021/12/14 02:43:23;;;;;;;20.60;14.35;;;8.20;99.90;;;;;;5159714;27;20137;-73
2021/12/14 02:45:52;;;;;;;19.40;13.68;;;8.20;99.90;;;;;;5157621;27;20042;-73
2021/12/14 02:48:19;;;;;;;21.70;15.43;;;8.20;99.90;;;;;;5159140;27;20050;-73
2021/12/14 02:50:46;;;;;;;23.23;14.77;;;8.20;99.90;;;;;;5159805;27;20450;-73
2021/12/14 02:53:16;;;;;;;24.02;15.15;;;8.20;99.90;;;;;;5149153;27;20075;-72
2021/12/14 02:55:42;;;;;;;22.42;15.18;;;8.20;99.90;;;;;;5117113;27;20053;-73
2021/12/14 02:58:10;;;;;;;23.00;15.32;;;8.20;99.90;;;;;;5117745;27;20055;-72
2021/12/14 03:00:42;;;;;;;22.73;14.95;;;8.20;99.90;;;;;;5126260;27;20061;-73
2021/12/14 03:03:11;;;;;;;25.80;16.17;;;8.20;99.90;;;;;;5137816;27;20490;-72
2021/12/14 03:05:40;;;;;;;22.95;15.50;;;8.20;99.90;;;;;;5137900;27;20043;-71
2021/12/14 03:08:12;;;;;;;25.88;15.10;;;8.20;99.90;;;;;;5138560;27;20083;-71
2021/12/14 03:10:54;;;;;;;22.75;15.10;;;8.20;99.90;;;;;;5134554;27;20068;-72
2021/12/14 03:13:23;;;;;;;24.88;15.27;;;8.10;99.90;;;;;;5117537;27;20134;-72
2021/12/14 03:15:53;;;;;;;23.63;15.60;;;8.20;99.90;;;;;;5116677;27;20055;-73
2021/12/14 03:18:25;;;;;;;21.92;15.75;;;8.20;99.90;;;;;;5117238;27;20104;-73
2021/12/14 03:20:55;;;;;;;22.67;15.25;;;8.10;99.90;;;;;;5120655;27;20047;-72
2021/12/14 03:23:26;;;;;;;23.73;15.57;;;8.10;99.90;;;;;;5157674;27;20101;-71
2021/12/14 03:25:57;;;;;;;22.02;15.40;;;8.10;99.90;;;;;;5157000;27;20565;-72
2021/12/14 03:28:27;;;;;;;22.88;16.27;;;8.10;99.90;;;;;;5158590;27;20102;-72
2021/12/14 03:31:03;;;;;;;25.80;16.67;;;8.10;99.90;;;;;;5157940;27;20129;-73
2021/12/14 03:33:33;;;;;;;21.98;14.82;;;8.10;99.90;;;;;;5158675;27;20397;-72
2021/12/14 03:36:05;;;;;;;24.75;16.88;;;8.10;99.90;;;;;;5158264;27;20133;-72
2021/12/14 03:38:38;;;;;;;23.83;15.10;;;8.10;99.90;;;;;;5136668;27;20057;-72
2021/12/14 03:41:10;;;;;;;24.95;16.83;;;8.10;99.90;;;;;;5116724;27;20548;-72
2021/12/14 03:43:39;;;;;;;23.92;17.17;;;8.10;99.90;;;;;;5126938;27;20081;-72
2021/12/14 03:46:06;;;;;;;25.17;15.52;;;8.10;99.90;;;;;;5137742;27;20133;-71
2021/12/14 03:48:34;;;;;;;25.23;16.85;;;8.10;99.90;;;;;;5141234;27;20106;-71
2021/12/14 03:51:02;;;;;;;24.23;16.45;;;8.10;99.90;;;;;;5146091;27;20057;-72
2021/12/14 03:53:29;;;;;;;25.80;15.95;;;8.10;99.90;;;;;;5155998;27;20050;-73
2021/12/14 03:56:00;;;;;;;24.52;16.20;;;8.10;99.90;;;;;;5166130;27;20129;-72
2021/12/14 03:58:35;;;;;;;25.60;17.33;;;8.10;99.90;;;;;;5158590;27;20054;-72
2021/12/14 04:01:09;;;;;;;27.13;16.67;;;8.10;99.90;;;;;;5158853;27;20038;-73
2021/12/14 04:03:37;;;;;;;24.00;16.85;;;8.10;99.90;;;;;;5158538;27;20466;-72
2021/12/14 04:06:05;;;;;;;26.90;17.83;;;8.10;99.90;;;;;;5157293;27;20137;-72
2021/12/14 04:08:33;;;;;;;28.83;17.83;;;8.10;99.90;;;;;;5157981;27;20054;-72
2021/12/14 04:11:04;;;;;;;27.77;17.63;;;8.10;99.90;;;;;;5157931;27;20133;-72
2021/12/14 04:13:34;;;;;;;;;;;8.10;99.90;;;;;;5176015;27;20050;-72
2021/12/14 04:16:01;;;;;;;26.33;18.10;;;8.10;99.90;;;;;;5157238;27;20009;-72
2021/12/14 04:18:29;;;;;;;25.52;17.23;;;8.10;99.90;;;;;;5157887;27;20137;-72
2021/12/14 04:20:58;;;;;;;25.95;16.77;;;8.10;99.90;;;;;;5157054;27;20054;-72
2021/12/14 04:23:31;;;;;;;29.02;18.35;;;8.10;99.90;;;;;;5157494;27;20137;-72
2021/12/14 04:26:00;;;;;;;28.05;18.08;;;8.10;99.90;;;;;;5156825;27;20434;-73
2021/12/14 04:28:31;;;;;;;28.25;17.30;;;8.10;99.90;;;;;;5157438;27;20133;-72
2021/12/14 04:31:00;;;;;;;29.90;18.30;;;8.10;99.90;;;;;;5157239;27;20050;-73
2021/12/14 04:33:31;;;;;;;25.05;16.92;;;8.20;99.90;;;;;;5156771;27;20552;-72
2021/12/14 04:36:02;;;;;;;28.90;18.35;;;8.20;99.90;;;;;;5175313;27;20581;-71
2021/12/14 04:38:31;;;;;;;26.38;17.67;;;8.20;99.90;;;;;;5157183;27;20236;-70
2021/12/14 04:52:15;;;;;;;32.30;21.00;;;8.10;99.90;;;;;;5156768;27;20038;-72
2021/12/14 04:54:46;;;;;;;27.90;18.67;;;8.10;99.90;;;;;;5132590;27;20495;-72
2021/12/14 04:57:20;;;;;;;31.42;18.92;;;8.10;99.90;;;;;;5115449;27;20055;-72
2021/12/14 04:59:49;;;;;;;32.08;20.52;;;8.10;99.90;;;;;;5115974;27;20485;-71
2021/12/14 05:02:20;;;;;;;26.77;19.40;;;8.00;99.90;;;;;;5114697;27;20047;-72
2021/12/14 05:04:47;;;;;;;32.47;20.17;;;8.00;99.90;;;;;;5115469;27;20147;-72
2021/12/14 05:07:34;;;;;;;31.58;20.20;;;8.00;99.90;;;;;;5115378;27;20496;-72
2021/12/14 05:10:03;;;;;;;30.55;19.30;;;8.00;99.90;;;;;;5115081;27;20100;-72
2021/12/14 05:12:33;;;;;;;29.05;18.80;;;8.00;99.90;;;;;;5115351;27;20122;-73
2021/12/14 05:15:05;;;;;;;32.90;19.85;;;8.00;99.90;;;;;;5116884;27;20058;-71
2021/12/14 05:17:37;;;;;;;26.92;17.83;;;8.10;99.90;;;;;;5157247;27;20533;-72
2021/12/14 05:20:06;;;;;;;26.95;19.63;;;8.00;99.90;;;;;;5156999;27;20098;-72
2021/12/14 05:22:36;;;;;;;29.80;18.80;;;8.00;99.90;;;;;;5155434;27;20129;-71
2021/12/14 05:25:09;;;;;;;29.17;18.73;;;8.10;99.90;;;;;;5156550;27;20095;-71
2021/12/14 05:27:40;;;;;;;30.30;19.13;;;8.00;99.90;;;;;;5156425;27;20053;-73
2021/12/14 05:30:11;;;;;;;32.00;19.55;;;8.00;99.90;;;;;;5156471;27;20114;-73
2021/12/14 05:32:41;;;;;;;33.08;20.17;;;8.00;99.90;;;;;;5156644;27;20049;-73
2021/12/14 05:35:11;;;;;;;31.60;18.98;;;8.00;99.90;;;;;;5152311;27;20104;-71
2021/12/14 05:37:45;;;;;;;31.50;21.43;;;8.00;99.90;;;;;;5124700;27;20134;-70
2021/12/14 05:40:21;;;;;;;32.03;20.27;;;8.00;99.90;;;;;;5136355;27;20123;-71
2021/12/14 05:45:33;;;;;;;33.72;22.00;;;7.90;99.90;;;;;;5126806;27;20440;-70
2021/12/14 05:48:01;;;;;;;32.22;20.02;;;7.90;99.90;;;;;;5128627;27;20060;-70
2021/12/14 05:50:30;;;;;;;32.50;21.00;;;7.90;99.90;;;;;;5134410;27;20440;-69
2021/12/14 05:52:57;;;;;;;34.03;20.17;;;8.00;99.90;;;;;;5133196;27;20121;-69
2021/12/14 05:55:29;;;;;;;31.08;20.38;;;8.00;99.90;;;;;;5132463;27;20083;-69
2021/12/14 05:57:58;;;;;;;33.10;21.40;;;8.00;99.90;;;;;;5136916;27;20074;-69
2021/12/14 06:00:27;;;;;;;32.97;20.77;;;8.00;99.90;;;;;;5135737;27;20413;-69
2021/12/14 06:02:54;;;;;;;32.83;21.48;;;8.00;99.90;;;;;;5136961;27;20049;-69
2021/12/14 06:05:24;;;;;;;33.10;20.83;;;8.00;99.90;;;;;;5135648;27;20061;-70
2021/12/14 06:07:51;;;;;;;33.70;21.73;;;7.90;99.90;;;;;;5132884;27;20150;-70
2021/12/14 06:10:23;;;;;;;29.92;20.70;;;8.00;99.90;;;;;;5134773;27;20123;-70
2021/12/14 06:12:50;;;;;;;34.72;21.27;;;8.00;99.90;;;;;;5132506;27;20506;-71
2021/12/14 06:15:25;;;;;;;39.25;21.40;;;8.00;99.90;;;;;;5133544;27;20160;-70
2021/12/14 06:17:52;;;;;;;31.50;19.88;;;8.00;99.90;;;;;;5131512;27;20039;-71
2021/12/14 06:20:24;;;;;;;32.35;20.30;;;8.00;99.90;;;;;;5137797;27;21019;-70
2021/12/14 06:22:53;;;;;;;34.25;21.67;;;8.00;99.90;;;;;;5132576;27;20473;-71
2021/12/14 06:25:21;;;;;;;36.22;21.98;;;8.00;99.90;;;;;;5134490;27;20418;-70
2021/12/14 06:27:50;;;;;;;43.47;21.70;;;8.00;99.90;;;;;;5154634;27;20522;-70
2021/12/14 06:30:20;;;;;;;29.52;19.30;;;8.00;99.90;;;;;;5135494;27;20154;-70
2021/12/14 06:32:50;;;;;;;36.35;22.50;;;8.00;99.90;;;;;;5129815;27;20054;-70
2021/12/14 06:35:20;;;;;;;35.88;23.02;;;8.00;99.90;;;;;;5133581;27;20150;-70
2021/12/14 06:38:22;;;;;;;37.25;21.48;;;8.00;99.90;;;;;;5131160;27;20095;-69
2021/12/14 06:40:54;;;;;;;36.13;22.15;;;8.00;99.90;;;;;;5130313;27;20049;-71
2021/12/14 06:43:25;;;;;;;35.28;22.65;;;8.00;99.90;;;;;;5135040;27;20533;-70
2021/12/14 06:45:56;;;;;;;35.97;22.05;;;8.00;99.90;;;;;;5135399;27;20372;-70
2021/12/14 06:48:30;;;;;;;36.30;23.67;;;8.00;99.90;;;;;;5138361;27;20066;-70
2021/12/14 06:51:02;;;;;;;38.20;23.13;;;8.00;99.90;;;;;;5136479;27;20070;-70
2021/12/14 06:53:31;;;;;;;36.58;22.45;;;8.00;99.90;;;;;;5132872;27;20043;-70
2021/12/14 06:56:01;;;;;;;33.53;22.42;;;8.10;99.90;;;;;;5126108;27;20050;-70
2021/12/14 06:58:31;;;;;;;34.70;21.23;;;8.10;99.90;;;;;;5132965;27;20082;-71
2021/12/14 07:01:06;;;;;;;35.47;24.00;;;8.00;99.90;;;;;;5134236;27;20292;-71
2021/12/14 07:03:38;;;;;;;35.30;22.55;;;8.10;99.90;;;;;;5131186;27;20117;-72
2021/12/14 07:06:06;;;;;;;34.05;22.83;;;8.00;99.90;;;;;;5134566;27;20046;-71
2021/12/14 07:08:35;;;;;;;36.00;22.83;;;8.00;99.90;;;;;;5129886;27;20051;-70
2021/12/14 07:11:02;;;;;;;38.50;23.35;;;8.00;99.90;;;;;;5131614;27;20138;-70
2021/12/14 07:13:37;;;;;;;41.50;23.70;;;8.00;99.90;;;;;;5132364;27;20372;-71
2021/12/14 07:16:12;;;;;;;37.28;22.17;;;8.00;99.90;;;;;;5132603;27;20405;-71
2021/12/14 07:18:41;;;;;;;39.35;23.35;;;8.00;99.90;;;;;;5131895;27;20083;-71
2021/12/14 07:21:08;;;;;;;41.20;26.02;;;8.00;99.90;;;;;;5132283;27;20043;-72
2021/12/14 07:23:37;;;;;;;43.53;24.13;;;8.00;99.90;;;;;;5134517;27;20130;-70
2021/12/14 07:26:06;;;;;;;40.40;24.75;;;8.00;99.90;;;;;;5132057;27;20048;-72
2021/12/14 07:28:36;;;;;;;41.80;24.63;;;8.00;99.90;;;;;;5131298;27;20146;-72
2021/12/14 07:31:13;;;;;;;41.83;25.17;;;8.00;99.90;;;;;;5136449;27;20403;-71
2021/12/14 07:33:47;;;;;;;42.53;26.02;;;8.00;99.90;;;;;;5142785;27;20070;-71
2021/12/14 07:36:21;;;;;;;42.05;25.65;;;8.00;99.90;;;;;;5136007;27;20055;-71
2021/12/14 07:38:50;;;;;;;46.42;26.20;;;8.00;99.90;;;;;;5154925;27;20051;-72
2021/12/14 07:41:23;;;;;;;41.53;25.60;;;8.00;99.90;;;;;;5136403;27;20558;-71
2021/12/14 07:43:55;;;;;;;41.83;25.17;;;8.00;99.90;;;;;;5135375;27;20043;-71
2021/12/14 07:46:28;;;;;;;48.35;25.85;;;8.00;99.90;;;;;;5139586;27;20056;-70
2021/12/14 07:48:58;;;;;;;49.33;27.92;;;8.00;99.90;;;;;;5136315;27;20061;-70
2021/12/14 07:51:27;;;;;;;43.65;26.48;;;8.00;99.90;;;;;;5153905;27;20057;-71
2021/12/14 07:54:00;;;;;;;43.60;26.90;;;8.10;99.90;;;;;;5136142;27;20197;-71
2021/12/14 07:56:32;;;;;;;49.63;28.10;;;8.00;99.90;;;;;;5135423;27;20062;-72
2021/12/14 07:59:01;;;;;;;43.67;27.70;;;8.00;99.90;;;;;;5135239;27;20043;-72
2021/12/14 08:01:28;;;;;;;40.35;26.20;;;8.00;99.90;;;;;;5136250;27;20133;-72
2021/12/14 08:03:59;;;;;;;46.10;26.55;;;8.00;99.90;;;;;;5134558;27;20055;-72
2021/12/14 08:06:26;;;;;;;51.42;28.90;;;8.00;99.90;;;;;;5135606;27;20236;-72
2021/12/14 08:08:56;;;;;;;45.72;28.33;;;8.00;99.90;;;;;;5134216;27;20053;-72
2021/12/14 08:11:46;;;;;;;50.97;29.38;;;8.00;99.90;;;;;;5153120;27;20051;-71
2021/12/14 08:14:18;;;;;;;43.03;26.30;;;8.00;99.90;;;;;;5135223;27;20039;-71
2021/12/14 08:16:49;;;;;;;51.55;30.15;;;8.10;99.90;;;;;;5134658;27;20347;-71
2021/12/14 08:19:26;;;;;;;45.20;27.65;;;8.10;99.90;;;;;;5134210;27;20114;-71
2021/12/14 08:21:55;;;;;;;49.13;27.98;;;8.10;99.90;;;;;;5135498;27;20137;-72
2021/12/14 08:24:23;;;;;;;48.20;28.02;;;8.10;99.90;;;;;;5130433;27;20043;-72
2021/12/14 08:26:53;;;;;;;49.88;28.20;;;8.10;99.90;;;;;;5132147;27;20453;-72
2021/12/14 08:29:22;;;;;;;46.97;26.75;;;8.10;99.90;;;;;;5135105;27;20074;-71
2021/12/14 08:31:52;;;;;;;46.33;26.88;;;8.10;99.90;;;;;;5135104;27;20418;-72
2021/12/14 08:34:22;;;;;;;46.40;26.63;;;8.10;99.90;;;;;;5131048;27;20137;-72
2021/12/14 08:36:53;;;;;;;49.85;28.83;;;8.20;99.90;;;;;;5153685;27;20051;-72
2021/12/14 08:39:24;;;;;;;47.67;28.52;;;8.20;99.90;;;;;;5135268;27;20042;-71
2021/12/14 08:41:57;;;;;;;45.40;27.20;;;8.20;99.90;;;;;;5135268;27;20129;-72
2021/12/14 08:44:35;;;;;;;49.10;28.60;;;8.20;99.90;;;;;;5134263;27;20054;-72
2021/12/14 08:47:03;;;;;;;48.40;27.50;;;8.20;99.90;;;;;;5131297;27;20047;-72
2021/12/14 08:49:30;;;;;;;44.10;25.88;;;8.30;99.90;;;;;;5134221;27;20413;-71
2021/12/14 08:51:57;;;;;;;44.70;28.33;;;8.30;99.90;;;;;;5135095;27;20076;-72
2021/12/14 08:54:29;;;;;;;45.97;26.08;;;8.30;99.90;;;;;;5134104;27;20072;-72
2021/12/14 08:56:59;;;;;;;47.97;26.00;;;8.30;99.90;;;;;;5131346;27;20138;-71
2021/12/14 08:59:27;;;;;;;56.13;26.45;;;8.30;99.90;;;;;;5130947;27;20086;-72
2021/12/14 09:01:55;;;;;;;46.22;25.50;;;8.30;99.90;;;;;;5133534;27;20074;-72
2021/12/14 09:04:24;;;;;;;47.08;26.45;;;8.30;99.90;;;;;;5134180;27;20134;-72
2021/12/14 09:06:55;;;;;;;43.22;25.48;;;8.30;99.90;;;;;;5133957;27;20586;-71
2021/12/14 09:09:25;;;;;;;42.50;26.27;;;8.30;99.90;;;;;;5133809;27;20076;-72
2021/12/14 09:11:56;;;;;;;41.03;24.75;;;8.40;99.90;;;;;;5134069;27;20053;-73
2021/12/14 09:14:24;;;;;;;39.30;24.20;;;8.40;99.90;;;;;;5132886;27;20517;-72
2021/12/14 09:16:54;;;;;;;43.72;25.52;;;8.40;99.90;;;;;;5134128;27;20508;-72
2021/12/14 09:19:25;;;;;;;45.63;25.58;;;8.50;99.90;;;;;;5133468;27;20056;-70
2021/12/14 09:21:53;;;;;;;;;;;8.50;99.90;;;;;;5134139;27;20080;-72
2021/12/14 09:24:24;;;;;;;43.60;25.88;;;8.50;99.90;;;;;;5132983;27;19926;-70
2021/12/14 09:26:57;;;;;;;47.47;25.80;;;8.50;99.90;;;;;;5134228;27;20510;-71
2021/12/14 09:29:27;;;;;;;42.45;25.00;;;8.50;99.90;;;;;;5142597;27;20129;-72
2021/12/14 09:31:56;;;;;;;40.95;25.08;;;8.60;99.90;;;;;;5147253;27;20054;-71
2021/12/14 09:34:27;;;;;;;42.45;26.13;;;8.60;99.90;;;;;;5145834;27;20053;-72
2021/12/14 09:36:54;;;;;;;;;;;8.60;99.90;;;;;;5137397;27;20130;-72
2021/12/14 09:39:26;;;;;;;43.88;25.63;;;8.60;99.90;;;;;;5134606;27;20041;-72
2021/12/14 09:41:55;;;;;;;40.50;25.20;;;8.60;99.90;;;;;;5135241;27;20072;-71
2021/12/14 09:44:25;;;;;;;45.10;26.63;;;8.60;99.90;;;;;;5135317;27;20591;-72
2021/12/14 09:46:54;;;;;;;43.63;24.75;;;8.70;99.90;;;;;;5134124;27;20046;-72
2021/12/14 09:49:22;;;;;;;43.20;25.50;;;8.70;99.90;;;;;;5134117;27;20054;-72
2021/12/14 09:51:54;;;;;;;44.40;26.73;;;8.70;99.90;;;;;;5133672;27;20499;-72
2021/12/14 09:54:25;;;;;;;41.92;25.60;;;8.80;99.90;;;;;;5134280;27;20093;-71
2021/12/14 09:56:57;;;;;;;49.65;26.90;;;8.80;99.90;;;;;;5132969;27;20082;-72
2021/12/14 09:59:24;;;;;;;38.90;24.63;;;8.70;99.90;;;;;;5130166;27;20130;-72
2021/12/14 10:01:56;;;;;;;40.67;25.90;;;8.70;99.90;;;;;;5133514;27;20066;-72
2021/12/14 10:04:26;;;;;;;43.20;24.95;;;8.70;99.90;;;;;;5132568;27;20252;-72
2021/12/14 10:06:54;;;;;;;43.45;25.67;;;8.70;99.90;;;;;;5133970;27;20130;-72
2021/12/14 10:09:24;;;;;;;42.97;25.23;;;8.70;99.90;;;;;;5133447;27;20050;-71
2021/12/14 10:12:15;;;;;;;45.78;25.92;;;8.70;99.90;;;;;;5133085;27;20130;-73
2021/12/14 10:14:43;;;;;;;43.88;25.40;;;8.70;99.90;;;;;;5133591;27;20242;-72
2021/12/14 10:17:13;;;;;;;40.58;24.52;;;8.70;99.90;;;;;;5132993;27;20134;-70
2021/12/14 10:19:42;;;;;;;37.42;22.60;;;8.70;99.90;;;;;;5132940;27;20130;-71
2021/12/14 10:22:12;;;;;;;41.83;24.77;;;8.70;99.90;;;;;;5132138;27;20054;-72
2021/12/14 10:24:39;;;;;;;;;;;8.70;99.90;;;;;;5129854;27;20126;-71
2021/12/14 10:27:11;;;;;;;43.05;26.05;;;8.70;99.90;;;;;;5134114;27;20475;-73
2021/12/14 10:29:38;;;;;;;40.15;24.80;;;8.70;99.90;;;;;;5130552;27;20502;-74
2021/12/14 10:32:09;;;;;;;40.10;25.52;;;8.70;99.90;;;;;;5133033;27;20125;-70
2021/12/14 10:34:40;;;;;;;47.50;27.65;;;8.70;99.90;;;;;;5134660;27;20536;-71
2021/12/14 10:37:15;;;;;;;48.30;25.77;;;8.60;99.90;;;;;;5137250;27;20061;-72
2021/12/14 10:42:40;;;;;;;46.50;26.30;;;8.60;99.90;;;;;;5128059;27;20043;-72
2021/12/14 10:42:53;;;;;;;42.28;24.85;;;8.70;99.90;;;;;;5128155;27;20055;-73
2021/12/14 10:45:21;;;;;;;41.65;23.58;;;8.70;99.90;;;;;;5125911;27;20467;-71
2021/12/14 10:47:47;;;;;;;35.45;23.33;;;8.70;99.90;;;;;;5131026;27;20058;-71
2021/12/14 10:50:17;;;;;;;43.15;24.52;;;8.70;99.90;;;;;;5129343;27;20109;-72
2021/12/14 10:52:45;;;;;;;40.85;24.25;;;8.80;99.90;;;;;;5126571;27;20077;-71
2021/12/14 10:55:17;;;;;;;37.70;23.58;;;8.80;99.90;;;;;;5132193;27;20342;-71
2021/12/14 10:57:46;;;;;;;39.85;23.80;;;8.80;99.90;;;;;;5133158;27;20076;-72
2021/12/14 11:00:19;;;;;;;37.63;23.52;;;8.80;99.90;;;;;;5125982;27;20059;-71
2021/12/14 11:02:45;;;;;;;36.67;23.23;;;8.90;99.90;;;;;;5134388;27;20054;-71
2021/12/14 11:05:18;;;;;;;38.15;22.10;;;8.90;99.90;;;;;;5129267;27;20125;-71
2021/12/14 11:07:47;;;;;;;42.45;22.38;;;8.90;99.90;;;;;;5135511;27;20061;-71
2021/12/14 11:10:19;;;;;;;35.13;21.75;;;9.00;99.90;;;;;;5129988;27;20051;-71
2021/12/14 11:12:50;;;;;;;39.38;22.42;;;9.00;99.90;;;;;;5130733;27;20125;-72
2021/12/14 11:15:20;;;;;;;36.45;22.38;;;9.00;99.90;;;;;;5130957;27;20122;-71
2021/12/14 11:20:36;;;;;;;35.10;20.02;;;9.00;99.90;;;;;;5126318;27;20051;-71
2021/12/14 11:23:06;;;;;;;35.70;21.02;;;9.00;99.90;;;;;;5133569;27;20138;-71
2021/12/14 11:25:37;;;;;;;30.67;19.55;;;9.00;99.90;;;;;;5134115;27;20047;-72
2021/12/14 11:28:09;;;;;;;36.78;21.25;;;9.00;99.90;;;;;;5147292;27;20054;-71
2021/12/14 11:30:39;;;;;;;33.25;20.35;;;9.00;99.90;;;;;;5130742;27;20082;-71
2021/12/14 11:33:10;;;;;;;38.00;21.13;;;9.10;99.90;;;;;;5124950;27;20455;-75
2021/12/14 11:35:40;;;;;;;;;;;9.00;99.90;;;;;;5129439;27;20096;-75
2021/12/14 11:38:12;;;;;;;36.13;20.48;;;9.00;99.90;;;;;;5127394;27;19980;-70
2021/12/14 11:40:39;;;;;;;31.00;18.75;;;9.00;99.90;;;;;;5150295;27;20070;-68
2021/12/14 11:43:13;;;;;;;29.00;19.05;;;9.00;99.90;;;;;;5128354;27;20061;-69
2021/12/14 11:45:41;;;;;;;33.45;20.27;;;9.00;99.90;;;;;;5134390;27;20097;-68
2021/12/14 11:48:09;;;;;;;35.40;21.88;;;9.00;99.90;;;;;;5127377;27;20072;-68
2021/12/14 11:50:39;;;;;;;32.80;20.08;;;9.00;99.90;;;;;;5129474;27;20133;-70
2021/12/14 11:53:15;;;;;;;34.70;19.90;;;9.00;99.90;;;;;;5131006;27;20137;-71
2021/12/14 11:55:45;;;;;;;28.85;18.80;;;9.00;99.90;;;;;;5131376;27;20481;-70
2021/12/14 11:58:24;;;;;;;31.98;18.90;;;9.00;99.90;;;;;;5125364;27;20097;-70
2021/12/14 12:00:55;;;;;;;30.08;18.20;;;9.00;99.90;;;;;;5131919;27;20051;-68
2021/12/14 12:03:36;;;;;;;34.20;19.55;;;9.00;99.90;;;;;;5129691;27;20467;-69
2021/12/14 12:06:09;;;;;;;34.20;19.63;;;9.00;99.90;;;;;;5128552;27;20055;-68
2021/12/14 12:11:30;;;;;;;29.25;18.63;;;9.00;99.90;;;;;;5128342;27;20409;-68
2021/12/14 12:13:59;;;;;;;32.20;18.30;;;9.10;99.90;;;;;;5132248;27;20053;-78
2021/12/14 12:16:28;;;;;;;34.13;20.65;;;9.00;99.90;;;;;;5128033;27;20644;-81
2021/12/14 12:19:10;;;;;;;29.10;18.02;;;9.10;99.90;;;;;;5127932;27;20051;-82
2021/12/14 12:21:39;;;;;;;29.88;18.83;;;9.00;99.90;;;;;;5125326;27;20046;-74
2021/12/14 12:24:26;;;;;;;27.85;17.80;;;9.10;99.90;;;;;;5131584;27;20051;-77
2021/12/14 12:26:53;;;;;;;33.70;19.85;;;9.00;99.90;;;;;;5136289;27;20078;-83
2021/12/14 12:29:28;;;;;;;31.65;16.95;;;9.10;99.90;;;;;;5130004;27;20086;-90
2021/12/14 12:32:06;;;;;;;31.58;16.90;;;9.00;99.90;;;;;;5122812;27;20051;-80
2021/12/14 12:34:35;;;;;;;27.08;15.27;;;9.10;99.90;;;;;;5126721;27;20120;-78
2021/12/14 12:37:02;;;;;;;24.88;14.95;;;9.00;99.90;;;;;;5129732;27;20107;-81
2021/12/14 12:39:31;;;;;;;27.92;15.40;;;9.10;99.90;;;;;;5132700;27;20578;-80
2021/12/14 12:42:01;;;;;;;24.42;14.23;;;9.10;99.90;;;;;;5128495;27;20093;-81
2021/12/14 12:44:31;;;;;;;29.97;17.10;;;9.10;99.90;;;;;;5129817;27;20078;-74
2021/12/14 12:47:01;;;;;;;29.67;15.18;;;9.10;99.90;;;;;;5126948;27;20304;-80
2021/12/14 12:49:30;;;;;;;25.02;14.80;;;9.10;99.90;;;;;;5129478;27;20094;-83
2021/12/14 12:52:02;;;;;;;27.65;15.60;;;9.10;99.90;;;;;;5131521;27;20082;-78
2021/12/14 12:54:46;;;;;;;25.20;15.18;;;9.10;99.90;;;;;;5131074;27;20206;-83
2021/12/14 12:57:53;;;;;;;27.98;14.45;;;9.10;99.90;;;;;;5135488;27;20514;-81
2021/12/14 13:00:38;;;;;;;21.75;13.55;;;9.20;99.90;;;;;;5128234;27;20046;-82
2021/12/14 13:03:09;;;;;;;19.70;11.98;;;9.20;99.90;;;;;;5131753;27;20097;-82
2021/12/14 13:05:40;;;;;;;18.10;11.35;;;9.20;99.90;;;;;;5125812;27;20137;-82
2021/12/14 13:08:16;;;;;;;20.58;12.40;;;9.30;99.90;;;;;;5126336;27;20062;-82
2021/12/14 13:10:47;;;;;;;21.88;12.85;;;9.30;99.90;;;;;;5128630;27;20143;-80
2021/12/14 13:13:17;;;;;;;19.85;11.88;;;9.30;99.90;;;;;;5129431;27;20066;-79
2021/12/14 13:15:59;;;;;;;22.05;11.73;;;9.30;99.90;;;;;;5127827;27;20113;-79
2021/12/14 13:18:34;;;;;;;19.27;10.50;;;9.30;99.90;;;;;;5131249;27;20386;-86
2021/12/14 13:21:15;;;;;;;17.50;10.68;;;9.30;99.90;;;;;;5128151;27;20075;-84